sensor_id;sensor_type;location;lat;lon;timestamp;P1;durP1;ratioP1;P2;durP2;ratioP2
9100;SDS011;4586;52.518;13.486;2022-12-18T00:03:52;11.77;;;5.63;;
9100;SDS011;4586;52.518;13.486;2022-12-18T00:07:53;11.93;;;5.80;;
9100;SDS011;4586;52.518;13.486;2022-12-18T00:11:54;17.07;;;6.63;;
9100;SDS011;4586;52.518;13.486;2022-12-18T00:15:55;13.47;;;6.57;;
9100;SDS011;4586;52.518;13.486;2022-12-18T00:19:56;12.50;;;6.00;;
9100;SDS011;4586;52.518;13.486;2022-12-18T00:23:57;11.20;;;6.10;;
9100;SDS011;4586;52.518;13.486;2022-12-18T00:27:58;14.33;;;6.77;;
9100;SDS011;4586;52.518;13.486;2022-12-18T00:31:59;15.53;;;7.03;;
9100;SDS011;4586;52.518;13.486;2022-12-18T00:36:04;14.90;;;6.67;;
9100;SDS011;4586;52.518;13.486;2022-12-18T00:40:06;17.50;;;7.63;;
9100;SDS011;4586;52.518;13.486;2022-12-18T00:44:08;17.03;;;7.03;;
9100;SDS011;4586;52.518;13.486;2022-12-18T00:48:10;15.20;;;7.03;;
9100;SDS011;4586;52.518;13.486;2022-12-18T00:52:11;16.67;;;7.70;;
9100;SDS011;4586;52.518;13.486;2022-12-18T00:56:12;14.93;;;7.27;;
9100;SDS011;4586;52.518;13.486;2022-12-18T01:00:14;14.53;;;7.30;;
9100;SDS011;4586;52.518;13.486;2022-12-18T01:04:15;13.23;;;6.40;;
9100;SDS011;4586;52.518;13.486;2022-12-18T01:08:19;18.43;;;8.67;;
9100;SDS011;4586;52.518;13.486;2022-12-18T01:12:20;13.10;;;6.20;;
9100;SDS011;4586;52.518;13.486;2022-12-18T01:16:24;17.87;;;7.23;;
9100;SDS011;4586;52.518;13.486;2022-12-18T01:20:25;12.97;;;7.17;;
9100;SDS011;4586;52.518;13.486;2022-12-18T01:24:26;16.50;;;7.80;;
9100;SDS011;4586;52.518;13.486;2022-12-18T01:28:27;15.33;;;7.37;;
9100;SDS011;4586;52.518;13.486;2022-12-18T01:32:29;19.00;;;7.20;;
9100;SDS011;4586;52.518;13.486;2022-12-18T01:36:32;15.80;;;7.30;;
9100;SDS011;4586;52.518;13.486;2022-12-18T01:40:33;17.77;;;7.53;;
9100;SDS011;4586;52.518;13.486;2022-12-18T01:48:55;24.90;;;9.00;;
9100;SDS011;4586;52.518;13.486;2022-12-18T01:52:59;19.80;;;9.27;;
9100;SDS011;4586;52.518;13.486;2022-12-18T01:57:02;24.07;;;9.83;;
9100;SDS011;4586;52.518;13.486;2022-12-18T02:01:04;18.83;;;9.07;;
9100;SDS011;4586;52.518;13.486;2022-12-18T02:05:06;24.67;;;11.30;;
9100;SDS011;4586;52.518;13.486;2022-12-18T02:09:53;17.70;;;7.87;;
9100;SDS011;4586;52.518;13.486;2022-12-18T02:17:40;24.60;;;11.00;;
9100;SDS011;4586;52.518;13.486;2022-12-18T02:21:52;30.50;;;11.50;;
9100;SDS011;4586;52.518;13.486;2022-12-18T02:29:57;32.10;;;12.33;;
9100;SDS011;4586;52.518;13.486;2022-12-18T02:34:02;28.43;;;11.67;;
9100;SDS011;4586;52.518;13.486;2022-12-18T02:38:10;27.57;;;11.47;;
9100;SDS011;4586;52.518;13.486;2022-12-18T02:42:14;28.60;;;11.63;;
9100;SDS011;4586;52.518;13.486;2022-12-18T02:46:26;22.40;;;10.83;;
9100;SDS011;4586;52.518;13.486;2022-12-18T02:50:36;21.63;;;9.03;;
9100;SDS011;4586;52.518;13.486;2022-12-18T03:02:51;20.37;;;9.63;;
9100;SDS011;4586;52.518;13.486;2022-12-18T03:06:59;25.53;;;10.83;;
9100;SDS011;4586;52.518;13.486;2022-12-18T03:11:11;18.77;;;7.80;;
9100;SDS011;4586;52.518;13.486;2022-12-18T03:15:21;23.23;;;8.67;;
9100;SDS011;4586;52.518;13.486;2022-12-18T03:19:29;21.27;;;8.97;;
9100;SDS011;4586;52.518;13.486;2022-12-18T03:23:38;19.07;;;9.00;;
9100;SDS011;4586;52.518;13.486;2022-12-18T03:27:43;19.27;;;8.20;;
9100;SDS011;4586;52.518;13.486;2022-12-18T03:31:49;18.63;;;8.33;;
9100;SDS011;4586;52.518;13.486;2022-12-18T03:35:52;14.73;;;7.73;;
9100;SDS011;4586;52.518;13.486;2022-12-18T03:39:53;17.37;;;9.20;;
9100;SDS011;4586;52.518;13.486;2022-12-18T03:44:08;17.60;;;7.33;;
9100;SDS011;4586;52.518;13.486;2022-12-18T03:48:19;18.37;;;8.07;;
9100;SDS011;4586;52.518;13.486;2022-12-18T03:56:30;15.73;;;7.27;;
9100;SDS011;4586;52.518;13.486;2022-12-18T04:00:34;16.97;;;7.07;;
9100;SDS011;4586;52.518;13.486;2022-12-18T04:04:41;13.87;;;7.13;;
9100;SDS011;4586;52.518;13.486;2022-12-18T04:08:43;16.40;;;7.93;;
9100;SDS011;4586;52.518;13.486;2022-12-18T04:12:48;15.17;;;6.97;;
9100;SDS011;4586;52.518;13.486;2022-12-18T04:16:50;11.40;;;6.07;;
9100;SDS011;4586;52.518;13.486;2022-12-18T04:20:55;13.90;;;7.27;;
9100;SDS011;4586;52.518;13.486;2022-12-18T04:24:56;13.33;;;5.70;;
9100;SDS011;4586;52.518;13.486;2022-12-18T04:29:04;13.00;;;6.30;;
9100;SDS011;4586;52.518;13.486;2022-12-18T04:33:12;15.00;;;7.00;;
9100;SDS011;4586;52.518;13.486;2022-12-18T04:37:17;14.00;;;5.43;;
9100;SDS011;4586;52.518;13.486;2022-12-18T04:41:18;18.23;;;7.03;;
9100;SDS011;4586;52.518;13.486;2022-12-18T04:45:21;17.27;;;7.53;;
9100;SDS011;4586;52.518;13.486;2022-12-18T04:49:22;18.63;;;7.80;;
9100;SDS011;4586;52.518;13.486;2022-12-18T04:53:23;18.57;;;7.37;;
9100;SDS011;4586;52.518;13.486;2022-12-18T04:57:24;18.17;;;7.23;;
9100;SDS011;4586;52.518;13.486;2022-12-18T05:01:26;17.83;;;6.97;;
9100;SDS011;4586;52.518;13.486;2022-12-18T05:05:27;18.60;;;7.57;;
9100;SDS011;4586;52.518;13.486;2022-12-18T05:09:28;15.67;;;6.70;;
9100;SDS011;4586;52.518;13.486;2022-12-18T05:13:29;14.27;;;6.77;;
9100;SDS011;4586;52.518;13.486;2022-12-18T05:17:30;17.70;;;8.00;;
9100;SDS011;4586;52.518;13.486;2022-12-18T05:21:31;22.00;;;7.93;;
9100;SDS011;4586;52.518;13.486;2022-12-18T05:25:32;20.67;;;8.30;;
9100;SDS011;4586;52.518;13.486;2022-12-18T05:29:33;17.33;;;8.33;;
9100;SDS011;4586;52.518;13.486;2022-12-18T05:33:35;19.43;;;8.17;;
9100;SDS011;4586;52.518;13.486;2022-12-18T05:37:36;17.00;;;7.17;;
9100;SDS011;4586;52.518;13.486;2022-12-18T05:41:37;16.67;;;7.57;;
9100;SDS011;4586;52.518;13.486;2022-12-18T05:45:38;22.27;;;8.50;;
9100;SDS011;4586;52.518;13.486;2022-12-18T05:49:39;14.20;;;6.03;;
9100;SDS011;4586;52.518;13.486;2022-12-18T05:53:40;18.77;;;8.20;;
9100;SDS011;4586;52.518;13.486;2022-12-18T05:57:41;21.83;;;9.00;;
9100;SDS011;4586;52.518;13.486;2022-12-18T06:01:42;20.70;;;8.93;;
9100;SDS011;4586;52.518;13.486;2022-12-18T06:05:44;17.93;;;7.50;;
9100;SDS011;4586;52.518;13.486;2022-12-18T06:09:45;24.00;;;8.37;;
9100;SDS011;4586;52.518;13.486;2022-12-18T06:13:46;21.63;;;9.33;;
9100;SDS011;4586;52.518;13.486;2022-12-18T06:17:47;17.70;;;8.57;;
9100;SDS011;4586;52.518;13.486;2022-12-18T06:21:48;19.97;;;9.07;;
9100;SDS011;4586;52.518;13.486;2022-12-18T06:25:49;18.83;;;8.20;;
9100;SDS011;4586;52.518;13.486;2022-12-18T06:29:50;17.60;;;8.90;;
9100;SDS011;4586;52.518;13.486;2022-12-18T06:33:51;20.13;;;8.60;;
9100;SDS011;4586;52.518;13.486;2022-12-18T06:37:52;17.00;;;7.47;;
9100;SDS011;4586;52.518;13.486;2022-12-18T06:41:53;19.00;;;8.80;;
9100;SDS011;4586;52.518;13.486;2022-12-18T06:45:58;19.47;;;8.50;;
9100;SDS011;4586;52.518;13.486;2022-12-18T06:49:59;17.53;;;7.87;;
9100;SDS011;4586;52.518;13.486;2022-12-18T06:54:00;17.77;;;7.53;;
9100;SDS011;4586;52.518;13.486;2022-12-18T06:58:01;19.93;;;8.73;;
9100;SDS011;4586;52.518;13.486;2022-12-18T07:02:02;20.73;;;9.10;;
9100;SDS011;4586;52.518;13.486;2022-12-18T07:06:03;22.97;;;9.03;;
9100;SDS011;4586;52.518;13.486;2022-12-18T07:10:04;23.17;;;10.83;;
9100;SDS011;4586;52.518;13.486;2022-12-18T07:14:06;20.13;;;8.73;;
9100;SDS011;4586;52.518;13.486;2022-12-18T07:18:07;15.17;;;6.97;;
9100;SDS011;4586;52.518;13.486;2022-12-18T07:22:08;20.00;;;9.57;;
9100;SDS011;4586;52.518;13.486;2022-12-18T07:26:10;16.17;;;8.30;;
9100;SDS011;4586;52.518;13.486;2022-12-18T07:30:11;15.23;;;6.83;;
9100;SDS011;4586;52.518;13.486;2022-12-18T07:34:13;15.67;;;6.87;;
9100;SDS011;4586;52.518;13.486;2022-12-18T07:38:14;16.77;;;7.40;;
9100;SDS011;4586;52.518;13.486;2022-12-18T07:42:15;19.23;;;7.90;;
9100;SDS011;4586;52.518;13.486;2022-12-18T07:46:17;17.93;;;6.83;;
9100;SDS011;4586;52.518;13.486;2022-12-18T07:50:18;21.60;;;7.47;;
9100;SDS011;4586;52.518;13.486;2022-12-18T07:54:20;22.83;;;8.43;;
9100;SDS011;4586;52.518;13.486;2022-12-18T07:58:21;17.70;;;6.40;;
9100;SDS011;4586;52.518;13.486;2022-12-18T08:02:22;15.20;;;5.70;;
9100;SDS011;4586;52.518;13.486;2022-12-18T08:06:23;15.30;;;6.13;;
9100;SDS011;4586;52.518;13.486;2022-12-18T08:10:24;10.90;;;5.73;;
9100;SDS011;4586;52.518;13.486;2022-12-18T08:14:25;15.13;;;7.47;;
9100;SDS011;4586;52.518;13.486;2022-12-18T08:18:26;19.43;;;6.67;;
9100;SDS011;4586;52.518;13.486;2022-12-18T08:22:27;17.07;;;7.37;;
9100;SDS011;4586;52.518;13.486;2022-12-18T08:26:29;15.73;;;7.13;;
9100;SDS011;4586;52.518;13.486;2022-12-18T08:30:31;13.53;;;6.30;;
9100;SDS011;4586;52.518;13.486;2022-12-18T08:34:32;18.77;;;6.70;;
9100;SDS011;4586;52.518;13.486;2022-12-18T08:38:33;15.57;;;7.63;;
9100;SDS011;4586;52.518;13.486;2022-12-18T08:42:34;18.27;;;6.90;;
9100;SDS011;4586;52.518;13.486;2022-12-18T08:46:36;15.03;;;6.40;;
9100;SDS011;4586;52.518;13.486;2022-12-18T08:50:37;13.90;;;6.57;;
9100;SDS011;4586;52.518;13.486;2022-12-18T08:54:38;15.20;;;6.43;;
9100;SDS011;4586;52.518;13.486;2022-12-18T08:58:40;14.97;;;7.13;;
9100;SDS011;4586;52.518;13.486;2022-12-18T09:02:41;18.67;;;8.00;;
9100;SDS011;4586;52.518;13.486;2022-12-18T09:06:42;13.23;;;6.40;;
9100;SDS011;4586;52.518;13.486;2022-12-18T09:10:44;17.33;;;7.57;;
9100;SDS011;4586;52.518;13.486;2022-12-18T09:14:45;16.83;;;6.73;;
9100;SDS011;4586;52.518;13.486;2022-12-18T09:18:46;12.90;;;6.33;;
9100;SDS011;4586;52.518;13.486;2022-12-18T09:22:47;17.27;;;7.83;;
9100;SDS011;4586;52.518;13.486;2022-12-18T09:26:48;16.67;;;6.93;;
9100;SDS011;4586;52.518;13.486;2022-12-18T09:30:53;14.73;;;5.90;;
9100;SDS011;4586;52.518;13.486;2022-12-18T09:34:54;15.30;;;6.60;;
9100;SDS011;4586;52.518;13.486;2022-12-18T09:38:55;9.17;;;3.77;;
9100;SDS011;4586;52.518;13.486;2022-12-18T09:42:57;13.23;;;6.00;;
9100;SDS011;4586;52.518;13.486;2022-12-18T09:51:14;12.53;;;6.60;;
9100;SDS011;4586;52.518;13.486;2022-12-18T09:59:38;15.20;;;5.17;;
9100;SDS011;4586;52.518;13.486;2022-12-18T10:03:38;12.97;;;5.17;;
9100;SDS011;4586;52.518;13.486;2022-12-18T10:07:57;11.20;;;5.60;;
9100;SDS011;4586;52.518;13.486;2022-12-18T10:16:09;18.40;;;8.60;;
9100;SDS011;4586;52.518;13.486;2022-12-18T10:20:12;13.87;;;7.17;;
9100;SDS011;4586;52.518;13.486;2022-12-18T10:28:24;10.87;;;5.57;;
9100;SDS011;4586;52.518;13.486;2022-12-18T10:32:27;8.63;;;3.47;;
9100;SDS011;4586;52.518;13.486;2022-12-18T10:36:28;18.10;;;8.20;;
9100;SDS011;4586;52.518;13.486;2022-12-18T10:40:29;16.03;;;8.37;;
9100;SDS011;4586;52.518;13.486;2022-12-18T10:44:30;14.70;;;7.93;;
9100;SDS011;4586;52.518;13.486;2022-12-18T10:48:32;17.30;;;8.63;;
9100;SDS011;4586;52.518;13.486;2022-12-18T10:52:34;13.90;;;6.80;;
9100;SDS011;4586;52.518;13.486;2022-12-18T10:56:35;17.67;;;6.63;;
9100;SDS011;4586;52.518;13.486;2022-12-18T11:00:37;21.70;;;8.17;;
9100;SDS011;4586;52.518;13.486;2022-12-18T11:04:40;14.77;;;6.90;;
9100;SDS011;4586;52.518;13.486;2022-12-18T11:09:06;13.90;;;6.13;;
9100;SDS011;4586;52.518;13.486;2022-12-18T11:13:11;12.97;;;5.27;;
9100;SDS011;4586;52.518;13.486;2022-12-18T11:17:23;12.60;;;6.27;;
9100;SDS011;4586;52.518;13.486;2022-12-18T11:21:25;16.17;;;6.83;;
9100;SDS011;4586;52.518;13.486;2022-12-18T11:25:26;9.73;;;6.07;;
9100;SDS011;4586;52.518;13.486;2022-12-18T11:29:32;15.13;;;6.23;;
9100;SDS011;4586;52.518;13.486;2022-12-18T11:33:33;10.07;;;4.80;;
9100;SDS011;4586;52.518;13.486;2022-12-18T11:37:34;15.93;;;5.00;;
9100;SDS011;4586;52.518;13.486;2022-12-18T11:41:47;9.27;;;4.13;;
9100;SDS011;4586;52.518;13.486;2022-12-18T11:45:52;12.00;;;5.80;;
9100;SDS011;4586;52.518;13.486;2022-12-18T11:49:53;9.47;;;6.20;;
9100;SDS011;4586;52.518;13.486;2022-12-18T11:53:56;12.80;;;6.03;;
9100;SDS011;4586;52.518;13.486;2022-12-18T11:58:03;8.27;;;4.47;;
9100;SDS011;4586;52.518;13.486;2022-12-18T12:18:34;12.03;;;5.87;;
9100;SDS011;4586;52.518;13.486;2022-12-18T12:39:16;14.83;;;5.37;;
9100;SDS011;4586;52.518;13.486;2022-12-18T12:43:27;10.20;;;4.90;;
9100;SDS011;4586;52.518;13.486;2022-12-18T12:47:36;11.70;;;5.37;;
9100;SDS011;4586;52.518;13.486;2022-12-18T12:51:39;14.27;;;5.70;;
9100;SDS011;4586;52.518;13.486;2022-12-18T12:55:41;11.27;;;5.07;;
9100;SDS011;4586;52.518;13.486;2022-12-18T13:04:15;8.40;;;4.80;;
9100;SDS011;4586;52.518;13.486;2022-12-18T13:08:24;12.17;;;5.83;;
9100;SDS011;4586;52.518;13.486;2022-12-18T13:12:25;12.60;;;6.37;;
9100;SDS011;4586;52.518;13.486;2022-12-18T13:16:27;5.27;;;3.43;;
9100;SDS011;4586;52.518;13.486;2022-12-18T13:20:32;7.97;;;4.80;;
9100;SDS011;4586;52.518;13.486;2022-12-18T13:24:33;10.07;;;3.50;;
9100;SDS011;4586;52.518;13.486;2022-12-18T13:32:47;5.40;;;2.67;;
9100;SDS011;4586;52.518;13.486;2022-12-18T13:36:49;14.40;;;7.03;;
9100;SDS011;4586;52.518;13.486;2022-12-18T13:44:51;11.17;;;5.40;;
9100;SDS011;4586;52.518;13.486;2022-12-18T13:48:56;12.40;;;6.67;;
9100;SDS011;4586;52.518;13.486;2022-12-18T13:52:58;8.57;;;4.27;;
9100;SDS011;4586;52.518;13.486;2022-12-18T13:56:59;5.57;;;3.23;;
9100;SDS011;4586;52.518;13.486;2022-12-18T14:01:00;10.00;;;5.07;;
9100;SDS011;4586;52.518;13.486;2022-12-18T14:05:01;12.43;;;4.80;;
9100;SDS011;4586;52.518;13.486;2022-12-18T14:09:02;8.33;;;3.10;;
9100;SDS011;4586;52.518;13.486;2022-12-18T14:17:10;14.40;;;5.70;;
9100;SDS011;4586;52.518;13.486;2022-12-18T14:21:25;10.40;;;5.30;;
9100;SDS011;4586;52.518;13.486;2022-12-18T14:25:27;13.33;;;6.73;;
9100;SDS011;4586;52.518;13.486;2022-12-18T14:29:29;13.50;;;4.57;;
9100;SDS011;4586;52.518;13.486;2022-12-18T14:33:31;9.60;;;4.40;;
9100;SDS011;4586;52.518;13.486;2022-12-18T14:37:32;6.23;;;3.50;;
9100;SDS011;4586;52.518;13.486;2022-12-18T14:41:33;5.47;;;3.47;;
9100;SDS011;4586;52.518;13.486;2022-12-18T14:49:38;12.60;;;4.87;;
9100;SDS011;4586;52.518;13.486;2022-12-18T14:53:43;8.57;;;5.83;;
9100;SDS011;4586;52.518;13.486;2022-12-18T14:57:44;10.27;;;4.77;;
9100;SDS011;4586;52.518;13.486;2022-12-18T15:01:47;9.97;;;4.43;;
9100;SDS011;4586;52.518;13.486;2022-12-18T15:05:49;8.97;;;5.10;;
9100;SDS011;4586;52.518;13.486;2022-12-18T15:14:30;8.63;;;4.50;;
9100;SDS011;4586;52.518;13.486;2022-12-18T15:18:32;7.57;;;4.77;;
9100;SDS011;4586;52.518;13.486;2022-12-18T15:22:35;14.53;;;7.07;;
9100;SDS011;4586;52.518;13.486;2022-12-18T15:26:36;10.83;;;6.10;;
9100;SDS011;4586;52.518;13.486;2022-12-18T15:30:38;10.90;;;5.60;;
9100;SDS011;4586;52.518;13.486;2022-12-18T15:34:39;10.57;;;4.60;;
9100;SDS011;4586;52.518;13.486;2022-12-18T15:38:40;8.47;;;5.00;;
9100;SDS011;4586;52.518;13.486;2022-12-18T15:42:41;10.07;;;5.63;;
9100;SDS011;4586;52.518;13.486;2022-12-18T15:46:43;16.50;;;7.60;;
9100;SDS011;4586;52.518;13.486;2022-12-18T15:50:44;8.13;;;5.03;;
9100;SDS011;4586;52.518;13.486;2022-12-18T15:54:45;9.93;;;5.97;;
9100;SDS011;4586;52.518;13.486;2022-12-18T15:58:46;11.80;;;5.30;;
9100;SDS011;4586;52.518;13.486;2022-12-18T16:02:47;7.83;;;4.13;;
9100;SDS011;4586;52.518;13.486;2022-12-18T16:06:48;7.40;;;4.17;;
9100;SDS011;4586;52.518;13.486;2022-12-18T16:10:49;10.47;;;5.13;;
9100;SDS011;4586;52.518;13.486;2022-12-18T16:14:50;11.23;;;5.83;;
9100;SDS011;4586;52.518;13.486;2022-12-18T16:18:51;12.40;;;5.83;;
9100;SDS011;4586;52.518;13.486;2022-12-18T16:22:52;10.57;;;5.83;;
9100;SDS011;4586;52.518;13.486;2022-12-18T16:26:53;8.27;;;4.37;;
9100;SDS011;4586;52.518;13.486;2022-12-18T16:30:54;11.40;;;5.97;;
9100;SDS011;4586;52.518;13.486;2022-12-18T16:34:59;10.27;;;6.13;;
9100;SDS011;4586;52.518;13.486;2022-12-18T16:39:00;7.83;;;5.27;;
9100;SDS011;4586;52.518;13.486;2022-12-18T16:43:04;9.13;;;4.70;;
9100;SDS011;4586;52.518;13.486;2022-12-18T16:47:06;3.57;;;2.57;;
9100;SDS011;4586;52.518;13.486;2022-12-18T16:51:07;6.60;;;3.60;;
9100;SDS011;4586;52.518;13.486;2022-12-18T16:55:08;12.37;;;6.13;;
9100;SDS011;4586;52.518;13.486;2022-12-18T16:59:09;9.80;;;5.20;;
9100;SDS011;4586;52.518;13.486;2022-12-18T17:03:11;13.77;;;5.90;;
9100;SDS011;4586;52.518;13.486;2022-12-18T17:07:12;11.83;;;5.80;;
9100;SDS011;4586;52.518;13.486;2022-12-18T17:11:14;11.17;;;6.10;;
9100;SDS011;4586;52.518;13.486;2022-12-18T17:15:15;10.30;;;5.77;;
9100;SDS011;4586;52.518;13.486;2022-12-18T17:19:16;12.03;;;6.20;;
9100;SDS011;4586;52.518;13.486;2022-12-18T17:23:17;10.60;;;5.03;;
9100;SDS011;4586;52.518;13.486;2022-12-18T17:27:18;7.63;;;4.27;;
9100;SDS011;4586;52.518;13.486;2022-12-18T17:31:20;10.43;;;5.43;;
9100;SDS011;4586;52.518;13.486;2022-12-18T17:35:21;9.23;;;5.83;;
9100;SDS011;4586;52.518;13.486;2022-12-18T17:39:22;15.67;;;6.27;;
9100;SDS011;4586;52.518;13.486;2022-12-18T17:43:23;11.83;;;6.70;;
9100;SDS011;4586;52.518;13.486;2022-12-18T17:47:24;12.60;;;6.70;;
9100;SDS011;4586;52.518;13.486;2022-12-18T17:51:25;16.00;;;6.60;;
9100;SDS011;4586;52.518;13.486;2022-12-18T17:55:27;12.60;;;6.30;;
9100;SDS011;4586;52.518;13.486;2022-12-18T17:59:28;12.47;;;6.73;;
9100;SDS011;4586;52.518;13.486;2022-12-18T18:03:30;14.43;;;7.50;;
9100;SDS011;4586;52.518;13.486;2022-12-18T18:07:31;13.27;;;7.83;;
9100;SDS011;4586;52.518;13.486;2022-12-18T18:11:32;18.63;;;7.80;;
9100;SDS011;4586;52.518;13.486;2022-12-18T18:15:33;15.73;;;8.13;;
9100;SDS011;4586;52.518;13.486;2022-12-18T18:19:34;16.40;;;8.23;;
9100;SDS011;4586;52.518;13.486;2022-12-18T18:23:35;12.10;;;7.93;;
9100;SDS011;4586;52.518;13.486;2022-12-18T18:27:36;17.23;;;8.33;;
9100;SDS011;4586;52.518;13.486;2022-12-18T18:31:37;15.87;;;7.90;;
9100;SDS011;4586;52.518;13.486;2022-12-18T18:35:41;12.63;;;7.00;;
9100;SDS011;4586;52.518;13.486;2022-12-18T18:39:43;22.30;;;8.70;;
9100;SDS011;4586;52.518;13.486;2022-12-18T18:43:44;14.60;;;7.73;;
9100;SDS011;4586;52.518;13.486;2022-12-18T18:47:45;15.50;;;7.03;;
9100;SDS011;4586;52.518;13.486;2022-12-18T18:51:48;18.23;;;9.17;;
9100;SDS011;4586;52.518;13.486;2022-12-18T18:55:49;21.30;;;9.07;;
9100;SDS011;4586;52.518;13.486;2022-12-18T18:59:50;15.53;;;7.30;;
9100;SDS011;4586;52.518;13.486;2022-12-18T19:03:52;22.17;;;10.63;;
9100;SDS011;4586;52.518;13.486;2022-12-18T19:07:54;18.20;;;8.30;;
9100;SDS011;4586;52.518;13.486;2022-12-18T19:11:55;20.07;;;9.93;;
9100;SDS011;4586;52.518;13.486;2022-12-18T19:16:03;15.43;;;7.80;;
9100;SDS011;4586;52.518;13.486;2022-12-18T19:20:04;20.57;;;10.90;;
9100;SDS011;4586;52.518;13.486;2022-12-18T19:24:05;21.07;;;8.57;;
9100;SDS011;4586;52.518;13.486;2022-12-18T19:28:07;22.83;;;9.90;;
9100;SDS011;4586;52.518;13.486;2022-12-18T19:32:08;17.20;;;8.70;;
9100;SDS011;4586;52.518;13.486;2022-12-18T19:36:13;13.37;;;7.40;;
9100;SDS011;4586;52.518;13.486;2022-12-18T19:40:15;21.43;;;9.13;;
9100;SDS011;4586;52.518;13.486;2022-12-18T19:44:16;18.20;;;9.13;;
9100;SDS011;4586;52.518;13.486;2022-12-18T19:48:17;19.83;;;9.13;;
9100;SDS011;4586;52.518;13.486;2022-12-18T19:52:18;14.17;;;8.00;;
9100;SDS011;4586;52.518;13.486;2022-12-18T19:56:21;20.17;;;9.30;;
9100;SDS011;4586;52.518;13.486;2022-12-18T20:00:22;15.27;;;8.93;;
9100;SDS011;4586;52.518;13.486;2022-12-18T20:04:23;18.70;;;9.73;;
9100;SDS011;4586;52.518;13.486;2022-12-18T20:08:24;18.57;;;9.83;;
9100;SDS011;4586;52.518;13.486;2022-12-18T20:12:26;11.90;;;7.43;;
9100;SDS011;4586;52.518;13.486;2022-12-18T20:16:30;18.67;;;8.57;;
9100;SDS011;4586;52.518;13.486;2022-12-18T20:20:31;16.27;;;8.47;;
9100;SDS011;4586;52.518;13.486;2022-12-18T20:24:32;20.93;;;9.50;;
9100;SDS011;4586;52.518;13.486;2022-12-18T20:28:33;16.20;;;7.93;;
9100;SDS011;4586;52.518;13.486;2022-12-18T20:32:34;16.47;;;7.13;;
9100;SDS011;4586;52.518;13.486;2022-12-18T20:36:35;20.17;;;8.57;;
9100;SDS011;4586;52.518;13.486;2022-12-18T20:40:39;19.13;;;9.57;;
9100;SDS011;4586;52.518;13.486;2022-12-18T20:44:40;12.03;;;5.43;;
9100;SDS011;4586;52.518;13.486;2022-12-18T20:48:41;12.80;;;6.13;;
9100;SDS011;4586;52.518;13.486;2022-12-18T20:52:42;16.70;;;8.97;;
9100;SDS011;4586;52.518;13.486;2022-12-18T20:56:43;16.87;;;7.83;;
9100;SDS011;4586;52.518;13.486;2022-12-18T21:00:45;22.47;;;8.47;;
9100;SDS011;4586;52.518;13.486;2022-12-18T21:04:46;16.50;;;6.90;;
9100;SDS011;4586;52.518;13.486;2022-12-18T21:08:47;20.13;;;7.47;;
9100;SDS011;4586;52.518;13.486;2022-12-18T21:12:49;19.37;;;9.23;;
9100;SDS011;4586;52.518;13.486;2022-12-18T21:16:50;15.10;;;8.20;;
9100;SDS011;4586;52.518;13.486;2022-12-18T21:20:54;18.47;;;8.33;;
9100;SDS011;4586;52.518;13.486;2022-12-18T21:24:55;12.50;;;7.17;;
9100;SDS011;4586;52.518;13.486;2022-12-18T21:28:57;21.27;;;8.67;;
9100;SDS011;4586;52.518;13.486;2022-12-18T21:32:59;14.93;;;6.90;;
9100;SDS011;4586;52.518;13.486;2022-12-18T21:37:00;15.87;;;6.53;;
9100;SDS011;4586;52.518;13.486;2022-12-18T21:41:04;15.17;;;8.03;;
9100;SDS011;4586;52.518;13.486;2022-12-18T21:45:05;14.00;;;6.63;;
9100;SDS011;4586;52.518;13.486;2022-12-18T21:49:07;13.17;;;7.30;;
9100;SDS011;4586;52.518;13.486;2022-12-18T21:53:08;12.60;;;6.50;;
9100;SDS011;4586;52.518;13.486;2022-12-18T21:57:10;14.47;;;5.10;;
9100;SDS011;4586;52.518;13.486;2022-12-18T22:01:11;17.30;;;7.63;;
9100;SDS011;4586;52.518;13.486;2022-12-18T22:05:12;18.23;;;7.20;;
9100;SDS011;4586;52.518;13.486;2022-12-18T22:09:14;13.60;;;6.87;;
9100;SDS011;4586;52.518;13.486;2022-12-18T22:13:15;15.10;;;7.50;;
9100;SDS011;4586;52.518;13.486;2022-12-18T22:17:16;14.97;;;7.07;;
9100;SDS011;4586;52.518;13.486;2022-12-18T22:25:21;13.03;;;6.63;;
9100;SDS011;4586;52.518;13.486;2022-12-18T22:29:23;27.90;;;14.07;;
9100;SDS011;4586;52.518;13.486;2022-12-18T22:33:24;20.07;;;9.10;;
9100;SDS011;4586;52.518;13.486;2022-12-18T22:37:25;14.43;;;7.13;;
9100;SDS011;4586;52.518;13.486;2022-12-18T22:41:26;17.97;;;8.33;;
9100;SDS011;4586;52.518;13.486;2022-12-18T22:45:27;15.70;;;8.13;;
9100;SDS011;4586;52.518;13.486;2022-12-18T22:49:28;16.40;;;8.47;;
9100;SDS011;4586;52.518;13.486;2022-12-18T22:53:29;9.27;;;5.97;;
9100;SDS011;4586;52.518;13.486;2022-12-18T22:57:30;13.87;;;6.90;;
9100;SDS011;4586;52.518;13.486;2022-12-18T23:01:31;13.90;;;7.97;;
9100;SDS011;4586;52.518;13.486;2022-12-18T23:05:32;18.77;;;8.37;;
9100;SDS011;4586;52.518;13.486;2022-12-18T23:09:34;15.13;;;8.57;;
9100;SDS011;4586;52.518;13.486;2022-12-18T23:13:35;16.70;;;8.27;;
9100;SDS011;4586;52.518;13.486;2022-12-18T23:17:36;12.93;;;5.93;;
9100;SDS011;4586;52.518;13.486;2022-12-18T23:21:37;12.00;;;5.73;;
9100;SDS011;4586;52.518;13.486;2022-12-18T23:25:38;5.73;;;3.17;;
9100;SDS011;4586;52.518;13.486;2022-12-18T23:29:39;16.00;;;7.80;;
9100;SDS011;4586;52.518;13.486;2022-12-18T23:33:40;12.33;;;6.77;;
9100;SDS011;4586;52.518;13.486;2022-12-18T23:37:41;9.57;;;5.20;;
9100;SDS011;4586;52.518;13.486;2022-12-18T23:41:42;16.33;;;7.90;;
9100;SDS011;4586;52.518;13.486;2022-12-18T23:45:43;12.97;;;6.50;;
9100;SDS011;4586;52.518;13.486;2022-12-18T23:49:44;8.77;;;5.73;;
9100;SDS011;4586;52.518;13.486;2022-12-18T23:53:45;9.93;;;5.83;;
9100;SDS011;4586;52.518;13.486;2022-12-18T23:57:46;11.53;;;6.13;;
